Amur-2507 — XUEC6 — position and weather

sailwx.info

Track history (hours):
 
Tides and Currents Weather Stations Pressure Air Temp Water Temp Dewpoint Dewpoint Depression Visibility Wind Speed Wind Dir Waves Ship Positions

Amur-2507

Last reported at 2015-May-23 23:17 UTC. Time now 2015-May-25 11:30 UTC.
Position N 46°35' E 031°33'.

Length 116 m; draft 3.8 m.

Type: Cargo ship. MMSI: 515694000.

Date/timePositionNaut miles runAvg speedWind from/ knotsBaromVisibWave heightAir tempDewpointWater temp
2015-May-23 23:17N 46°35' E 031°33'6 7.8
2015-May-23 22:33N 46°36' E 031°41'8 7.6
2015-May-23 21:33N 46°35' E 031°52'8 7.5
2015-May-23 20:33N 46°32' E 032°03'8 7.4
2015-May-23 19:26N 46°33' E 032°15'  
2015-May-21 11:31N 46°35' E 031°53'119 4.9
2015-May-20 11:14N 44°50' E 033°14'5 6.9
2015-May-20 10:33N 44°47' E 033°19'7 7.1
2015-May-20 09:33N 44°42' E 033°26'4 3.4
2015-May-20 08:26N 44°40' E 033°30'0 0.0
2015-May-20 07:20N 44°40' E 033°30'0 0.1
2015-May-20 06:32N 44°39' E 033°30'0 0.0
2015-May-20 05:32N 44°39' E 033°30'0 0.0
2015-May-20 04:32N 44°39' E 033°30'0 0.0
2015-May-20 03:23N 44°40' E 033°30'0 0.0
2015-May-20 02:23N 44°40' E 033°30'0 0.0
2015-May-20 01:32N 44°40' E 033°30'0 0.0
2015-May-20 00:29N 44°40' E 033°30'0 0.0
2015-May-19 23:33N 44°39' E 033°30'6 6.0
2015-May-19 22:33N 44°36' E 033°23'35 3.7
2015-May-19 13:08N 44°26' E 034°10'5 7.8
2015-May-19 12:33N 44°29' E 034°15'8 8.3
2015-May-19 11:31N 44°35' E 034°23'6 2.9
2015-May-19 09:33N 44°40' E 034°26'0 0.0
2015-May-19 08:33N 44°40' E 034°26'0 0.0
2015-May-19 07:33N 44°40' E 034°26'0 0.0
2015-May-19 06:33N 44°40' E 034°26'0 0.1
2015-May-19 05:30N 44°40' E 034°26'0 0.0
2015-May-19 04:30N 44°40' E 034°26'0 0.0
2015-May-19 03:33N 44°40' E 034°26'0 0.0
2015-May-19 02:33N 44°40' E 034°26'0 0.0
2015-May-19 01:18N 44°40' E 034°26'0 0.0
2015-May-19 00:33N 44°40' E 034°26'0 0.0
2015-May-18 23:33N 44°40' E 034°26'0 0.0
2015-May-18 22:33N 44°40' E 034°26'0 0.0
2015-May-18 21:33N 44°40' E 034°26'0 0.0
2015-May-18 20:33N 44°40' E 034°26'0 0.0
2015-May-18 19:33N 44°40' E 034°26'0 0.1
2015-May-18 18:30N 44°40' E 034°26'0 0.0
2015-May-18 17:30N 44°40' E 034°26'0 0.0
2015-May-18 16:33N 44°40' E 034°26'0 0.0
2015-May-18 14:33N 44°40' E 034°26'0 0.0
2015-May-18 13:30N 44°40' E 034°26'0 0.0
2015-May-18 12:06N 44°40' E 034°26'0 0.1
2015-May-18 11:21N 44°40' E 034°26'0 0.0
2015-May-18 10:24N 44°40' E 034°26'1 1.3
2015-May-18 09:34N 44°39' E 034°25'8 7.3
2015-May-18 08:32N 44°33' E 034°21'  
Track history (hours):
 
Tides and Currents Weather Stations Pressure Air Temp Water Temp Dewpoint Dewpoint Depression Visibility Wind Speed Wind Dir Waves Ship Positions

Amur-2507

Last reported at 2015-May-23 23:17 UTC. Time now 2015-May-25 11:30 UTC.
Position N 46°35' E 031°33'.

Length 116 m; draft 3.8 m.

Type: Cargo ship. MMSI: 515694000.

Date/timePositionNaut miles runAvg speedWind from/ knotsBaromVisibWave heightAir tempDewpointWater temp
2015-May-23 23:17N 46°35' E 031°33'6 7.8
2015-May-23 22:33N 46°36' E 031°41'8 7.6
2015-May-23 21:33N 46°35' E 031°52'8 7.5
2015-May-23 20:33N 46°32' E 032°03'8 7.4
2015-May-23 19:26N 46°33' E 032°15'  
2015-May-21 11:31N 46°35' E 031°53'119 4.9
2015-May-20 11:14N 44°50' E 033°14'5 6.9
2015-May-20 10:33N 44°47' E 033°19'7 7.1
2015-May-20 09:33N 44°42' E 033°26'4 3.4
2015-May-20 08:26N 44°40' E 033°30'0 0.0
2015-May-20 07:20N 44°40' E 033°30'0 0.1
2015-May-20 06:32N 44°39' E 033°30'0 0.0
2015-May-20 05:32N 44°39' E 033°30'0 0.0
2015-May-20 04:32N 44°39' E 033°30'0 0.0
2015-May-20 03:23N 44°40' E 033°30'0 0.0
2015-May-20 02:23N 44°40' E 033°30'0 0.0
2015-May-20 01:32N 44°40' E 033°30'0 0.0
2015-May-20 00:29N 44°40' E 033°30'0 0.0
2015-May-19 23:33N 44°39' E 033°30'6 6.0
2015-May-19 22:33N 44°36' E 033°23'35 3.7
2015-May-19 13:08N 44°26' E 034°10'5 7.8
2015-May-19 12:33N 44°29' E 034°15'8 8.3
2015-May-19 11:31N 44°35' E 034°23'6 2.9
2015-May-19 09:33N 44°40' E 034°26'0 0.0
2015-May-19 08:33N 44°40' E 034°26'0 0.0
2015-May-19 07:33N 44°40' E 034°26'0 0.0
2015-May-19 06:33N 44°40' E 034°26'0 0.1
2015-May-19 05:30N 44°40' E 034°26'0 0.0
2015-May-19 04:30N 44°40' E 034°26'0 0.0
2015-May-19 03:33N 44°40' E 034°26'0 0.0
2015-May-19 02:33N 44°40' E 034°26'0 0.0
2015-May-19 01:18N 44°40' E 034°26'0 0.0
2015-May-19 00:33N 44°40' E 034°26'0 0.0
2015-May-18 23:33N 44°40' E 034°26'0 0.0
2015-May-18 22:33N 44°40' E 034°26'0 0.0
2015-May-18 21:33N 44°40' E 034°26'0 0.0
2015-May-18 20:33N 44°40' E 034°26'0 0.0
2015-May-18 19:33N 44°40' E 034°26'0 0.1
2015-May-18 18:30N 44°40' E 034°26'0 0.0
2015-May-18 17:30N 44°40' E 034°26'0 0.0
2015-May-18 16:33N 44°40' E 034°26'0 0.0
2015-May-18 14:33N 44°40' E 034°26'0 0.0
2015-May-18 13:30N 44°40' E 034°26'0 0.0
2015-May-18 12:06N 44°40' E 034°26'0 0.1
2015-May-18 11:21N 44°40' E 034°26'0 0.0
2015-May-18 10:24N 44°40' E 034°26'1 1.3
2015-May-18 09:34N 44°39' E 034°25'8 7.3
2015-May-18 08:32N 44°33' E 034°21'  

Dump ship's entire track history